createdAt,value
2022-12-31T00:00:29.253Z,100.00
2022-12-31T00:01:32.124Z,100.00
2022-12-31T00:02:33.728Z,100.00
2022-12-31T00:03:35.356Z,100.00
2022-12-31T00:04:36.890Z,100.00
2022-12-31T00:05:38.429Z,100.00
2022-12-31T00:06:39.991Z,100.00
2022-12-31T00:08:42.154Z,100.00
2022-12-31T00:09:43.654Z,100.00
2022-12-31T00:10:45.201Z,100.00
2022-12-31T00:11:46.809Z,100.00
2022-12-31T00:12:48.411Z,100.00
2022-12-31T00:13:50.963Z,100.00
2022-12-31T00:14:52.505Z,100.00
2022-12-31T00:15:54.046Z,100.00
2022-12-31T00:16:56.917Z,100.00
2022-12-31T00:17:58.438Z,100.00
2022-12-31T00:19:00.950Z,100.00
2022-12-31T00:20:02.587Z,100.00
2022-12-31T00:21:08.585Z,100.00
2022-12-31T00:22:10.128Z,100.00
2022-12-31T00:23:11.726Z,100.00
2022-12-31T00:24:13.233Z,100.00
2022-12-31T00:25:14.893Z,100.00
2022-12-31T00:26:18.393Z,100.00
2022-12-31T00:27:19.910Z,100.00
2022-12-31T00:28:21.395Z,100.00
2022-12-31T00:29:23.104Z,100.00
2022-12-31T00:30:24.573Z,100.00
2022-12-31T00:31:27.775Z,100.00
2022-12-31T00:32:45.920Z,100.00
2022-12-31T00:33:47.729Z,100.00
2022-12-31T00:34:49.284Z,100.00
2022-12-31T00:35:50.766Z,100.00
2022-12-31T00:36:53.277Z,100.00
2022-12-31T00:37:54.763Z,100.00
2022-12-31T00:38:57.802Z,100.00
2022-12-31T00:39:59.364Z,100.00
2022-12-31T00:41:01.055Z,100.00
2022-12-31T00:42:02.565Z,100.00
2022-12-31T00:43:04.056Z,100.00
2022-12-31T00:44:05.771Z,100.00
2022-12-31T00:45:08.250Z,100.00
2022-12-31T00:46:11.212Z,100.00
2022-12-31T00:47:12.740Z,100.00
2022-12-31T00:48:15.575Z,100.00
2022-12-31T00:49:17.532Z,100.00
2022-12-31T00:50:19.040Z,100.00
2022-12-31T00:51:22.611Z,100.00
2022-12-31T00:52:24.121Z,100.00
2022-12-31T00:53:25.948Z,100.00
2022-12-31T00:54:27.478Z,100.00
2022-12-31T00:55:30.281Z,100.00
2022-12-31T00:56:32.281Z,100.00
2022-12-31T00:57:33.844Z,100.00
2022-12-31T00:58:35.774Z,100.00
2022-12-31T00:59:37.246Z,100.00
2022-12-31T01:00:39.319Z,100.00
2022-12-31T01:01:42.044Z,100.00
2022-12-31T01:02:43.853Z,100.00
2022-12-31T01:03:48.546Z,100.00
2022-12-31T01:04:50.233Z,100.00
2022-12-31T01:05:52.189Z,100.00
2022-12-31T01:06:53.707Z,100.00
2022-12-31T01:07:55.369Z,100.00
2022-12-31T01:08:56.947Z,100.00
2022-12-31T01:09:58.441Z,100.00
2022-12-31T01:11:01.221Z,100.00
2022-12-31T01:12:02.730Z,100.00
2022-12-31T01:13:04.313Z,100.00
2022-12-31T01:14:19.272Z,100.00
2022-12-31T01:15:20.757Z,100.00
2022-12-31T01:16:24.384Z,100.00
2022-12-31T01:17:25.863Z,100.00
2022-12-31T01:18:27.366Z,100.00
2022-12-31T01:19:30.249Z,100.00
2022-12-31T01:20:36.065Z,100.00
2022-12-31T01:21:38.820Z,100.00
2022-12-31T01:22:40.305Z,100.00
2022-12-31T01:23:42.402Z,100.00
2022-12-31T01:24:43.947Z,100.00
2022-12-31T01:25:45.444Z,100.00
2022-12-31T01:26:47.672Z,100.00
2022-12-31T01:27:49.186Z,100.00
2022-12-31T01:28:50.805Z,100.00
2022-12-31T01:29:52.336Z,100.00
2022-12-31T01:30:54.000Z,100.00
2022-12-31T01:31:55.508Z,100.00
2022-12-31T01:32:57.481Z,100.00
2022-12-31T01:33:58.980Z,100.00
2022-12-31T01:35:01.889Z,100.00
2022-12-31T01:36:05.157Z,100.00
2022-12-31T01:37:06.629Z,100.00
2022-12-31T01:38:08.124Z,100.00
2022-12-31T01:39:11.472Z,100.00
2022-12-31T01:40:13.209Z,100.00
2022-12-31T01:41:17.551Z,100.00
2022-12-31T01:42:19.099Z,100.00
2022-12-31T01:43:21.055Z,100.00
2022-12-31T01:44:47.146Z,100.00
2022-12-31T01:45:52.400Z,100.00
2022-12-31T01:46:56.481Z,100.00
2022-12-31T01:48:00.030Z,100.00
2022-12-31T01:49:04.727Z,100.00
2022-12-31T01:50:16.148Z,100.00
2022-12-31T01:51:17.914Z,100.00
2022-12-31T01:52:22.022Z,100.00
2022-12-31T01:53:23.599Z,100.00
2022-12-31T01:54:28.800Z,100.00
2022-12-31T01:55:35.772Z,100.00
2022-12-31T01:56:40.293Z,100.00
2022-12-31T01:57:43.806Z,100.00
2022-12-31T01:58:49.898Z,100.00
2022-12-31T01:59:53.127Z,100.00
2022-12-31T02:00:57.430Z,100.00
2022-12-31T02:01:59.661Z,100.00
2022-12-31T02:03:01.897Z,100.00
2022-12-31T02:04:19.858Z,100.00
2022-12-31T02:05:29.109Z,100.00
2022-12-31T02:06:37.345Z,100.00
2022-12-31T02:07:39.404Z,100.00
2022-12-31T02:08:42.402Z,100.00
2022-12-31T02:09:44.316Z,100.00
2022-12-31T02:10:45.797Z,100.00
2022-12-31T02:11:47.371Z,100.00
2022-12-31T02:12:49.111Z,100.00
2022-12-31T02:13:57.973Z,100.00
2022-12-31T02:15:00.046Z,100.00
2022-12-31T02:16:10.602Z,100.00
2022-12-31T02:17:23.216Z,100.00
2022-12-31T02:18:35.966Z,100.00
2022-12-31T02:20:13.442Z,100.00
2022-12-31T02:21:39.502Z,100.00
2022-12-31T02:22:59.366Z,100.00
2022-12-31T02:24:29.549Z,100.00
2022-12-31T02:25:50.222Z,100.00
2022-12-31T02:26:59.526Z,100.00
2022-12-31T02:28:14.419Z,100.00
2022-12-31T02:29:40.229Z,100.00
2022-12-31T02:30:47.777Z,100.00
2022-12-31T02:31:53.451Z,100.00
2022-12-31T02:33:11.772Z,100.00
2022-12-31T02:34:20.624Z,100.00
2022-12-31T02:35:28.584Z,100.00
2022-12-31T02:36:34.468Z,100.00
2022-12-31T02:37:37.924Z,100.00
2022-12-31T02:38:43.063Z,100.00
2022-12-31T02:39:44.782Z,100.00
2022-12-31T02:40:46.567Z,100.00
2022-12-31T02:41:48.514Z,100.00
2022-12-31T02:42:55.089Z,100.00
2022-12-31T02:43:57.167Z,100.00
2022-12-31T02:45:01.673Z,100.00
2022-12-31T02:46:12.874Z,100.00
2022-12-31T02:47:24.703Z,100.00
2022-12-31T02:48:39.860Z,100.00
2022-12-31T02:49:53.613Z,100.00
2022-12-31T02:51:06.552Z,100.00
2022-12-31T02:54:06.102Z,100.00
2022-12-31T02:55:15.980Z,100.00
2022-12-31T02:56:24.415Z,100.00
2022-12-31T02:57:30.660Z,100.00
2022-12-31T02:58:41.411Z,100.00
2022-12-31T02:59:51.831Z,100.00
2022-12-31T03:00:57.950Z,100.00
2022-12-31T03:02:06.458Z,100.00
2022-12-31T03:03:10.468Z,100.00
2022-12-31T03:04:13.759Z,100.00
2022-12-31T03:05:18.913Z,100.00
2022-12-31T03:06:20.436Z,100.00
2022-12-31T03:07:24.744Z,100.00
2022-12-31T03:08:26.714Z,100.00
2022-12-31T03:09:28.235Z,100.00
2022-12-31T03:10:32.550Z,100.00
2022-12-31T03:11:34.061Z,100.00
2022-12-31T03:12:36.138Z,100.00
2022-12-31T03:13:37.617Z,100.00
2022-12-31T03:14:39.078Z,100.00
2022-12-31T03:15:40.556Z,100.00
2022-12-31T03:16:42.133Z,100.00
2022-12-31T03:17:45.140Z,100.00
2022-12-31T03:18:46.638Z,100.00
2022-12-31T03:19:48.223Z,100.00
2022-12-31T03:20:51.184Z,100.00
2022-12-31T03:21:52.792Z,100.00
2022-12-31T03:22:54.319Z,100.00
2022-12-31T03:23:55.816Z,100.00
2022-12-31T03:25:00.047Z,100.00
2022-12-31T03:26:02.925Z,100.00
2022-12-31T03:27:04.454Z,100.00
2022-12-31T03:28:08.248Z,100.00
2022-12-31T03:29:09.772Z,100.00
2022-12-31T03:30:13.256Z,100.00
2022-12-31T03:31:14.895Z,100.00
2022-12-31T03:32:16.451Z,100.00
2022-12-31T03:33:20.718Z,100.00
2022-12-31T03:34:22.232Z,100.00
2022-12-31T03:35:25.131Z,100.00
2022-12-31T03:36:26.611Z,100.00
2022-12-31T03:37:28.084Z,100.00
2022-12-31T03:38:29.621Z,100.00
2022-12-31T03:39:31.075Z,100.00
2022-12-31T03:40:36.778Z,100.00
2022-12-31T03:41:38.264Z,100.00
2022-12-31T03:42:40.084Z,100.00
2022-12-31T03:43:41.576Z,100.00
2022-12-31T03:44:43.646Z,100.00
2022-12-31T03:45:47.477Z,100.00
2022-12-31T03:46:48.955Z,100.00
2022-12-31T03:47:53.415Z,100.00
2022-12-31T03:48:56.231Z,100.00
2022-12-31T03:49:57.729Z,100.00
2022-12-31T03:50:59.262Z,100.00
2022-12-31T03:52:00.755Z,100.00
2022-12-31T03:53:02.341Z,100.00
2022-12-31T03:54:03.844Z,100.00
2022-12-31T03:55:06.465Z,100.00
2022-12-31T03:56:07.985Z,100.00
2022-12-31T03:57:09.691Z,100.00
2022-12-31T03:58:11.549Z,100.00
2022-12-31T03:59:13.110Z,100.00
2022-12-31T04:00:17.546Z,100.00
2022-12-31T04:01:19.089Z,100.00
2022-12-31T04:02:26.307Z,100.00
2022-12-31T04:03:29.942Z,100.00
2022-12-31T04:04:32.859Z,100.00
2022-12-31T04:05:34.395Z,100.00
2022-12-31T04:06:35.941Z,100.00
2022-12-31T04:07:37.858Z,100.00
2022-12-31T04:08:39.339Z,100.00
2022-12-31T04:09:40.832Z,100.00
2022-12-31T04:10:42.331Z,100.00
2022-12-31T04:11:43.787Z,100.00
2022-12-31T04:12:54.428Z,100.00
2022-12-31T04:13:55.924Z,100.00
2022-12-31T04:14:57.482Z,100.00
2022-12-31T04:15:59.046Z,100.00
2022-12-31T04:17:00.666Z,100.00
2022-12-31T04:18:02.382Z,100.00
2022-12-31T04:19:04.009Z,100.00
2022-12-31T04:20:08.460Z,100.00
2022-12-31T04:21:10.002Z,100.00
2022-12-31T04:22:11.530Z,100.00
2022-12-31T04:23:13.046Z,100.00
2022-12-31T04:24:14.756Z,100.00
2022-12-31T04:25:34.795Z,100.00
2022-12-31T04:26:36.381Z,100.00
2022-12-31T04:27:38.956Z,100.00
2022-12-31T04:28:40.486Z,100.00
2022-12-31T04:29:41.970Z,100.00
2022-12-31T04:30:43.521Z,100.00
2022-12-31T04:31:45.148Z,100.00
2022-12-31T04:32:46.664Z,100.00
2022-12-31T04:33:48.242Z,100.00
2022-12-31T04:34:49.727Z,100.00
2022-12-31T04:35:52.659Z,100.00
2022-12-31T04:36:54.175Z,100.00
2022-12-31T04:37:55.654Z,100.00
2022-12-31T04:38:57.242Z,100.00
2022-12-31T04:40:05.182Z,100.00
2022-12-31T04:41:07.600Z,100.00
2022-12-31T04:42:09.100Z,100.00
2022-12-31T04:43:10.595Z,100.00
2022-12-31T04:44:12.097Z,100.00
2022-12-31T04:45:13.628Z,100.00
2022-12-31T04:46:16.190Z,100.00
2022-12-31T04:47:23.427Z,100.00
2022-12-31T04:48:25.425Z,100.00
2022-12-31T04:49:26.894Z,100.00
2022-12-31T04:50:28.421Z,100.00
2022-12-31T04:51:31.592Z,100.00
2022-12-31T04:52:38.625Z,100.00
2022-12-31T04:53:43.832Z,100.00
2022-12-31T04:54:45.325Z,100.00
2022-12-31T04:55:46.811Z,100.00
2022-12-31T04:56:48.273Z,100.00
2022-12-31T04:57:49.761Z,100.00
2022-12-31T04:58:51.319Z,100.00
2022-12-31T04:59:52.817Z,100.00
2022-12-31T05:00:54.485Z,100.00
2022-12-31T05:01:56.253Z,100.00
2022-12-31T05:02:57.954Z,100.00
2022-12-31T05:03:59.437Z,100.00
2022-12-31T05:05:00.902Z,100.00
2022-12-31T05:06:03.615Z,100.00
2022-12-31T05:07:06.518Z,100.00
2022-12-31T05:08:08.110Z,100.00
2022-12-31T05:09:09.598Z,100.00
2022-12-31T05:10:11.106Z,100.00
2022-12-31T05:11:12.706Z,100.00
2022-12-31T05:12:14.382Z,100.00
2022-12-31T05:13:16.343Z,100.00
2022-12-31T05:14:17.922Z,100.00
2022-12-31T05:15:19.464Z,100.00
2022-12-31T05:16:21.060Z,100.00
2022-12-31T05:17:22.568Z,100.00
2022-12-31T05:18:24.257Z,100.00
2022-12-31T05:19:25.783Z,100.00
2022-12-31T05:20:27.289Z,100.00
2022-12-31T05:21:28.829Z,100.00
2022-12-31T05:22:31.684Z,100.00
2022-12-31T05:23:33.269Z,100.00
2022-12-31T05:24:34.752Z,100.00
2022-12-31T05:25:36.570Z,100.00
2022-12-31T05:26:38.152Z,100.00
2022-12-31T05:27:39.676Z,100.00
2022-12-31T05:28:41.383Z,100.00
2022-12-31T05:29:42.855Z,100.00
2022-12-31T05:30:44.980Z,100.00
2022-12-31T05:31:46.508Z,100.00
2022-12-31T05:32:48.047Z,100.00
2022-12-31T05:33:49.544Z,100.00
2022-12-31T05:34:51.054Z,100.00
2022-12-31T05:35:52.543Z,100.00
2022-12-31T05:36:54.045Z,100.00
2022-12-31T05:37:56.876Z,100.00
2022-12-31T05:38:58.347Z,100.00
2022-12-31T05:40:00.041Z,100.00
2022-12-31T05:41:03.388Z,100.00
2022-12-31T05:42:05.000Z,100.00
2022-12-31T05:43:07.244Z,100.00
2022-12-31T05:44:10.699Z,100.00
2022-12-31T05:45:12.691Z,100.00
2022-12-31T05:46:14.210Z,100.00
2022-12-31T05:47:16.160Z,100.00
2022-12-31T05:48:17.645Z,100.00
2022-12-31T05:49:19.151Z,100.00
2022-12-31T05:50:38.827Z,100.00
2022-12-31T05:51:40.361Z,100.00
2022-12-31T05:52:47.285Z,100.00
2022-12-31T05:53:50.546Z,100.00
2022-12-31T05:54:52.055Z,100.00
2022-12-31T05:55:53.524Z,100.00
2022-12-31T05:56:55.051Z,100.00
2022-12-31T05:57:56.592Z,100.00
2022-12-31T05:58:58.123Z,100.00
2022-12-31T05:59:59.696Z,100.00
2022-12-31T06:01:01.230Z,100.00
2022-12-31T06:02:02.792Z,100.00
2022-12-31T06:03:04.507Z,100.00
2022-12-31T06:04:06.160Z,100.00
2022-12-31T06:05:08.515Z,100.00
2022-12-31T06:06:10.037Z,100.00
2022-12-31T06:07:11.536Z,100.00
2022-12-31T06:08:12.994Z,100.00
2022-12-31T06:09:17.267Z,100.00
2022-12-31T06:10:19.832Z,100.00
2022-12-31T06:11:21.331Z,100.00
2022-12-31T06:12:22.807Z,100.00
2022-12-31T06:13:24.331Z,100.00
2022-12-31T06:14:25.932Z,100.00
2022-12-31T06:15:27.439Z,100.00
2022-12-31T06:16:28.935Z,100.00
2022-12-31T06:17:30.637Z,100.00
2022-12-31T06:18:32.113Z,100.00
2022-12-31T06:19:33.573Z,100.00
2022-12-31T06:20:36.467Z,100.00
2022-12-31T06:21:37.966Z,100.00
2022-12-31T06:22:39.516Z,100.00
2022-12-31T06:23:41.041Z,100.00
2022-12-31T06:24:44.015Z,100.00
2022-12-31T06:25:45.809Z,100.00
2022-12-31T06:26:47.348Z,100.00
2022-12-31T06:27:48.847Z,100.00
2022-12-31T06:28:50.385Z,100.00
2022-12-31T06:29:51.858Z,100.00
2022-12-31T06:30:59.598Z,100.00
2022-12-31T06:32:01.139Z,100.00
2022-12-31T06:33:11.795Z,100.00
2022-12-31T06:34:13.288Z,100.00
2022-12-31T06:35:14.792Z,100.00
2022-12-31T06:36:16.419Z,100.00
2022-12-31T06:37:17.995Z,100.00
2022-12-31T06:38:19.531Z,100.00
2022-12-31T06:39:21.019Z,100.00
2022-12-31T06:40:24.037Z,100.00
2022-12-31T06:41:25.492Z,100.00
2022-12-31T06:42:28.256Z,100.00
2022-12-31T06:43:29.960Z,100.00
2022-12-31T06:44:31.461Z,100.00
2022-12-31T06:45:33.006Z,100.00
2022-12-31T06:46:34.559Z,100.00
2022-12-31T06:47:36.093Z,100.00
2022-12-31T06:48:38.608Z,100.00
2022-12-31T06:49:58.366Z,100.00
2022-12-31T06:51:03.815Z,100.00
2022-12-31T06:52:05.319Z,100.00
2022-12-31T06:53:09.699Z,100.00
2022-12-31T06:54:11.735Z,100.00
2022-12-31T06:55:14.403Z,100.00
2022-12-31T06:56:19.616Z,100.00
2022-12-31T06:57:22.909Z,100.00
2022-12-31T06:58:24.932Z,100.00
2022-12-31T06:59:28.473Z,100.00
2022-12-31T07:00:30.467Z,100.00
2022-12-31T07:01:49.855Z,100.00
2022-12-31T07:03:30.397Z,100.00
2022-12-31T07:05:04.753Z,100.00
2022-12-31T07:06:11.675Z,100.00
2022-12-31T07:07:20.978Z,100.00
2022-12-31T07:08:37.362Z,100.00
2022-12-31T07:09:51.335Z,100.00
2022-12-31T07:10:59.506Z,100.00
2022-12-31T07:12:06.487Z,100.00
2022-12-31T07:13:21.954Z,100.00
2022-12-31T07:14:31.511Z,100.00
2022-12-31T07:16:02.888Z,100.00
2022-12-31T07:17:18.402Z,100.00
2022-12-31T07:18:41.038Z,100.00
2022-12-31T07:19:57.484Z,100.00
2022-12-31T07:20:59.938Z,100.00
2022-12-31T07:22:02.934Z,100.00
2022-12-31T07:23:04.964Z,100.00
2022-12-31T07:24:07.657Z,100.00
2022-12-31T07:25:13.382Z,100.00
2022-12-31T07:26:30.830Z,100.00
2022-12-31T07:28:06.049Z,100.00
2022-12-31T07:29:14.675Z,100.00
2022-12-31T07:30:19.605Z,100.00
2022-12-31T07:31:33.915Z,100.00
2022-12-31T07:33:00.476Z,100.00
2022-12-31T07:34:08.146Z,100.00
2022-12-31T07:35:21.490Z,100.00
2022-12-31T07:36:35.204Z,100.00
2022-12-31T07:37:42.441Z,100.00
2022-12-31T07:38:53.139Z,100.00
2022-12-31T07:40:03.290Z,100.00
2022-12-31T07:41:16.719Z,100.00
2022-12-31T07:42:23.971Z,100.00
2022-12-31T07:43:34.400Z,100.00
2022-12-31T07:44:58.248Z,100.00
2022-12-31T07:46:07.411Z,100.00
2022-12-31T07:47:20.595Z,100.00
2022-12-31T07:48:24.801Z,100.00
2022-12-31T07:49:28.628Z,100.00
2022-12-31T07:50:30.939Z,100.00
2022-12-31T07:51:33.007Z,100.00
2022-12-31T07:52:35.101Z,100.00
2022-12-31T07:53:36.762Z,100.00
2022-12-31T07:54:38.240Z,100.00
2022-12-31T07:55:39.790Z,100.00
2022-12-31T07:56:42.027Z,100.00
2022-12-31T07:57:52.283Z,100.00
2022-12-31T07:59:06.224Z,100.00
2022-12-31T08:00:12.919Z,100.00
2022-12-31T08:01:19.443Z,100.00
2022-12-31T08:02:30.590Z,100.00
2022-12-31T08:03:47.655Z,100.00
2022-12-31T08:04:57.980Z,100.00
2022-12-31T08:06:10.409Z,100.00
2022-12-31T08:07:21.364Z,100.00
2022-12-31T08:08:35.176Z,100.00
2022-12-31T08:09:46.736Z,100.00
2022-12-31T08:11:00.745Z,100.00
2022-12-31T08:12:02.825Z,100.00
2022-12-31T08:13:10.189Z,100.00
2022-12-31T08:14:14.654Z,100.00
2022-12-31T08:15:30.303Z,100.00
2022-12-31T08:16:37.651Z,100.00
2022-12-31T08:17:39.607Z,100.00
2022-12-31T08:18:41.650Z,100.00
2022-12-31T08:19:43.882Z,100.00
2022-12-31T08:20:55.543Z,100.00
2022-12-31T08:22:18.487Z,100.00
2022-12-31T08:23:28.791Z,100.00
2022-12-31T08:24:40.219Z,100.00
2022-12-31T08:25:51.080Z,100.00
2022-12-31T08:27:02.025Z,100.00
2022-12-31T08:28:13.605Z,100.00
2022-12-31T08:30:57.989Z,100.00
2022-12-31T08:32:08.279Z,100.00
2022-12-31T08:33:17.027Z,100.00
2022-12-31T08:34:29.783Z,100.00
2022-12-31T08:35:47.399Z,100.00
2022-12-31T08:36:55.168Z,100.00
2022-12-31T08:38:08.423Z,100.00
2022-12-31T08:39:23.592Z,100.00
2022-12-31T08:40:31.472Z,100.00
2022-12-31T08:41:42.946Z,100.00
2022-12-31T08:43:00.868Z,100.00
2022-12-31T08:44:12.318Z,100.00
2022-12-31T08:45:19.959Z,100.00
2022-12-31T08:46:27.890Z,100.00
2022-12-31T08:47:38.679Z,100.00
2022-12-31T08:48:42.645Z,100.00
2022-12-31T08:49:44.565Z,100.00
2022-12-31T08:50:46.556Z,100.00
2022-12-31T08:51:48.554Z,100.00
2022-12-31T08:52:50.568Z,100.00
2022-12-31T08:53:53.315Z,100.00
2022-12-31T08:54:55.308Z,100.00
2022-12-31T08:56:07.735Z,100.00
2022-12-31T08:57:19.992Z,100.00
2022-12-31T08:58:34.267Z,100.00
2022-12-31T08:59:41.348Z,100.00
2022-12-31T09:00:46.356Z,100.00
2022-12-31T09:02:01.578Z,100.00
2022-12-31T09:03:19.031Z,100.00
2022-12-31T09:04:30.888Z,100.00
2022-12-31T09:05:38.886Z,100.00
2022-12-31T09:06:46.863Z,100.00
2022-12-31T09:08:00.846Z,100.00
2022-12-31T09:09:10.492Z,100.00
2022-12-31T09:10:18.160Z,100.00
2022-12-31T09:11:28.264Z,100.00
2022-12-31T09:12:35.631Z,100.00
2022-12-31T09:13:54.152Z,100.00
2022-12-31T09:15:03.702Z,100.00
2022-12-31T09:16:13.886Z,100.00
2022-12-31T09:17:38.104Z,100.00
2022-12-31T09:18:41.488Z,100.00
2022-12-31T09:19:46.584Z,100.00
2022-12-31T09:20:48.469Z,100.00
2022-12-31T09:21:50.393Z,100.00
2022-12-31T09:22:53.024Z,100.00
2022-12-31T09:23:55.163Z,100.00
2022-12-31T09:24:56.988Z,100.00
2022-12-31T09:26:06.126Z,100.00
2022-12-31T09:27:15.543Z,100.00
2022-12-31T09:28:28.525Z,100.00
2022-12-31T09:29:46.421Z,100.00
2022-12-31T09:30:54.001Z,100.00
2022-12-31T09:32:06.178Z,100.00
2022-12-31T09:33:12.392Z,100.00
2022-12-31T09:34:23.547Z,100.00
2022-12-31T09:35:35.332Z,100.00
2022-12-31T09:36:41.791Z,100.00
2022-12-31T09:37:46.491Z,100.00
2022-12-31T09:38:52.715Z,100.00
2022-12-31T09:39:59.348Z,100.00
2022-12-31T09:41:36.651Z,100.00
2022-12-31T09:43:33.434Z,100.00
2022-12-31T09:45:02.844Z,100.00
2022-12-31T09:46:23.778Z,100.00
2022-12-31T09:47:50.833Z,100.00
2022-12-31T09:49:20.414Z,100.00
2022-12-31T09:50:51.274Z,100.00
2022-12-31T09:52:07.716Z,100.00
2022-12-31T09:53:31.705Z,100.00
2022-12-31T09:54:54.052Z,100.00
2022-12-31T09:56:02.780Z,100.00
2022-12-31T09:57:22.666Z,100.00
2022-12-31T09:58:37.962Z,100.00
2022-12-31T09:59:48.209Z,100.00
2022-12-31T10:00:53.143Z,100.00
2022-12-31T10:01:57.548Z,100.00
2022-12-31T10:03:25.386Z,100.00
2022-12-31T10:04:52.481Z,100.00
2022-12-31T10:06:07.392Z,100.00
2022-12-31T10:07:24.717Z,100.00
2022-12-31T10:08:43.030Z,100.00
2022-12-31T10:09:59.718Z,100.00
2022-12-31T10:11:10.478Z,100.00
2022-12-31T10:12:37.466Z,100.00
2022-12-31T10:13:53.614Z,100.00
2022-12-31T10:15:14.324Z,100.00
2022-12-31T10:16:28.260Z,100.00
2022-12-31T10:17:42.902Z,100.00
2022-12-31T10:19:03.887Z,100.00
2022-12-31T10:20:33.361Z,100.00
2022-12-31T10:21:52.333Z,100.00
2022-12-31T10:23:20.853Z,100.00
2022-12-31T10:24:42.647Z,100.00
2022-12-31T10:26:04.565Z,100.00
2022-12-31T10:27:19.452Z,100.00
2022-12-31T10:28:30.914Z,100.00
2022-12-31T10:29:39.456Z,100.00
2022-12-31T10:30:50.201Z,100.00
2022-12-31T10:32:05.518Z,100.00
2022-12-31T10:33:15.359Z,100.00
2022-12-31T10:34:26.413Z,100.00
2022-12-31T10:35:36.081Z,100.00
2022-12-31T10:36:53.758Z,100.00
2022-12-31T10:38:05.870Z,100.00
2022-12-31T10:39:24.452Z,100.00
2022-12-31T10:40:47.101Z,100.00
2022-12-31T10:42:32.189Z,100.00
2022-12-31T10:44:14.263Z,100.00
2022-12-31T10:45:42.136Z,100.00
2022-12-31T10:47:07.717Z,100.00
2022-12-31T10:48:34.278Z,100.00
2022-12-31T10:50:21.692Z,100.00
2022-12-31T10:51:45.169Z,100.00
2022-12-31T10:53:16.891Z,100.00
2022-12-31T10:54:43.502Z,100.00
2022-12-31T10:56:00.869Z,100.00
2022-12-31T10:57:39.832Z,100.00
2022-12-31T10:59:15.858Z,100.00
2022-12-31T11:00:20.127Z,100.00
2022-12-31T11:01:33.249Z,100.00
2022-12-31T11:03:25.154Z,100.00
2022-12-31T11:04:58.553Z,100.00
2022-12-31T11:06:30.859Z,100.00
2022-12-31T11:07:52.361Z,100.00
2022-12-31T11:09:39.759Z,100.00
2022-12-31T11:11:00.795Z,100.00
2022-12-31T11:12:11.751Z,100.00
2022-12-31T11:13:58.959Z,100.00
2022-12-31T11:15:15.128Z,100.00
2022-12-31T11:16:44.755Z,100.00
2022-12-31T11:18:00.303Z,100.00
2022-12-31T11:19:12.706Z,100.00
2022-12-31T11:20:48.485Z,100.00
2022-12-31T11:22:10.761Z,100.00
2022-12-31T11:23:28.221Z,100.00
2022-12-31T11:24:41.536Z,100.00
2022-12-31T11:25:52.730Z,100.00
2022-12-31T11:27:13.983Z,100.00
2022-12-31T11:28:39.551Z,100.00
2022-12-31T11:30:01.283Z,100.00
2022-12-31T11:31:15.166Z,100.00
2022-12-31T11:32:29.904Z,100.00
2022-12-31T11:33:50.551Z,100.00
2022-12-31T11:35:20.689Z,100.00
2022-12-31T11:36:33.039Z,100.00
2022-12-31T11:37:45.096Z,100.00
2022-12-31T11:38:51.551Z,100.00
2022-12-31T11:40:02.037Z,100.00
2022-12-31T11:41:07.481Z,100.00
2022-12-31T11:42:20.293Z,100.00
2022-12-31T11:43:27.326Z,100.00
2022-12-31T11:44:36.274Z,100.00
2022-12-31T11:46:08.285Z,100.00
2022-12-31T11:48:12.177Z,100.00
2022-12-31T11:49:43.165Z,100.00
2022-12-31T11:50:54.989Z,100.00
2022-12-31T11:52:27.162Z,100.00
2022-12-31T11:53:57.419Z,100.00
2022-12-31T11:55:35.785Z,100.00
2022-12-31T11:56:40.217Z,100.00
2022-12-31T11:57:48.667Z,100.00
2022-12-31T11:58:52.892Z,100.00
2022-12-31T11:59:57.637Z,100.00
2022-12-31T12:01:04.300Z,100.00
2022-12-31T12:02:23.238Z,100.00
2022-12-31T12:03:25.246Z,100.00
2022-12-31T12:04:27.309Z,100.00
2022-12-31T12:05:29.538Z,100.00
2022-12-31T12:06:32.539Z,100.00
2022-12-31T12:07:34.049Z,100.00
2022-12-31T12:08:37.789Z,100.00
2022-12-31T12:09:39.940Z,99.88
2022-12-31T12:10:45.110Z,100.00
2022-12-31T12:11:46.646Z,100.00
2022-12-31T12:12:48.181Z,100.00
2022-12-31T12:13:49.820Z,99.82
2022-12-31T12:14:53.845Z,100.00
2022-12-31T12:15:57.847Z,99.23
2022-12-31T12:17:04.665Z,98.51
2022-12-31T12:18:09.839Z,98.47
2022-12-31T12:19:18.337Z,98.76
2022-12-31T12:20:25.356Z,98.39
2022-12-31T12:21:26.914Z,97.78
2022-12-31T12:22:29.477Z,99.29
2022-12-31T12:23:30.963Z,98.62
2022-12-31T12:24:33.802Z,97.30
2022-12-31T12:25:40.729Z,98.64
2022-12-31T12:26:43.463Z,97.88
2022-12-31T12:27:45.101Z,96.85
2022-12-31T12:28:46.615Z,97.27
2022-12-31T12:29:48.118Z,96.62
2022-12-31T12:30:59.898Z,96.43
2022-12-31T12:32:04.143Z,96.01
2022-12-31T12:33:15.599Z,96.24
2022-12-31T12:34:23.893Z,95.70
2022-12-31T12:35:27.755Z,95.68
2022-12-31T12:36:29.258Z,95.32
2022-12-31T12:37:32.539Z,96.29
2022-12-31T12:38:34.560Z,95.85
2022-12-31T12:39:37.449Z,95.47
2022-12-31T12:45:05.182Z,96.18
2022-12-31T12:46:18.260Z,96.93
2022-12-31T12:47:19.819Z,96.92
2022-12-31T12:48:30.681Z,95.37
2022-12-31T12:49:38.455Z,96.38
2022-12-31T12:50:44.709Z,96.67
2022-12-31T12:52:02.977Z,96.01
2022-12-31T12:53:18.100Z,95.89
2022-12-31T12:54:35.056Z,95.77
2022-12-31T12:55:46.732Z,96.22
2022-12-31T12:56:55.697Z,95.16
2022-12-31T12:58:04.030Z,94.77
2022-12-31T12:59:34.978Z,95.54
2022-12-31T13:00:43.766Z,96.11
2022-12-31T13:01:54.963Z,94.75
2022-12-31T13:03:13.321Z,96.37
2022-12-31T13:04:41.672Z,95.13
2022-12-31T13:05:55.968Z,95.82
2022-12-31T13:07:09.755Z,95.22
2022-12-31T13:08:25.620Z,95.27
2022-12-31T13:09:42.322Z,95.17
2022-12-31T13:11:00.803Z,95.32
2022-12-31T13:12:13.935Z,95.19
2022-12-31T13:13:26.905Z,95.16
2022-12-31T13:14:34.174Z,94.05
2022-12-31T13:15:44.267Z,94.71
2022-12-31T13:16:55.212Z,94.42
2022-12-31T13:18:07.912Z,94.16
2022-12-31T13:19:16.355Z,94.30
2022-12-31T13:20:28.989Z,93.71
2022-12-31T13:21:37.152Z,94.81
2022-12-31T13:22:56.130Z,94.64
2022-12-31T13:27:00.561Z,94.10
2022-12-31T13:28:05.060Z,94.90
2022-12-31T13:29:15.449Z,95.63
2022-12-31T13:30:19.262Z,95.29
2022-12-31T13:31:26.278Z,94.44
2022-12-31T13:32:38.997Z,94.73
2022-12-31T13:33:43.762Z,94.58
2022-12-31T13:34:48.089Z,95.03
2022-12-31T13:35:53.515Z,94.04
2022-12-31T13:36:58.705Z,94.54
2022-12-31T13:38:05.852Z,93.56
2022-12-31T13:39:15.129Z,93.81
2022-12-31T13:40:21.054Z,92.79
2022-12-31T13:41:27.386Z,93.33
2022-12-31T13:42:39.257Z,93.70
2022-12-31T13:43:50.870Z,94.15
2022-12-31T13:44:55.970Z,94.63
2022-12-31T13:46:03.851Z,94.06
2022-12-31T13:47:12.394Z,95.21
2022-12-31T13:48:20.078Z,94.47
2022-12-31T13:49:26.706Z,94.87
2022-12-31T13:50:31.652Z,94.45
2022-12-31T13:51:40.478Z,94.32
2022-12-31T13:52:48.682Z,93.77
2022-12-31T13:53:59.824Z,93.31
2022-12-31T13:55:09.446Z,93.74
2022-12-31T13:56:14.683Z,93.49
2022-12-31T13:57:29.938Z,94.19
2022-12-31T13:58:39.622Z,94.40
2022-12-31T13:59:45.454Z,94.23
2022-12-31T14:00:50.450Z,92.97
2022-12-31T14:01:57.865Z,94.70
2022-12-31T14:03:10.238Z,93.70
2022-12-31T14:04:16.585Z,93.43
2022-12-31T14:05:23.228Z,93.35
2022-12-31T14:06:32.623Z,94.04
2022-12-31T14:07:45.345Z,93.60
2022-12-31T14:08:47.377Z,93.48
2022-12-31T14:09:49.363Z,93.37
2022-12-31T14:11:00.388Z,93.85
2022-12-31T14:12:18.340Z,93.82
2022-12-31T14:13:34.828Z,93.06
2022-12-31T14:14:46.031Z,92.85
2022-12-31T14:16:05.002Z,93.83
2022-12-31T14:17:15.980Z,93.37
2022-12-31T14:18:26.998Z,93.39
2022-12-31T14:19:48.613Z,93.39
2022-12-31T14:21:05.877Z,93.85
2022-12-31T14:22:16.085Z,93.34
2022-12-31T14:23:56.212Z,92.92